createdAt,value
2022-10-26T00:00:00.337Z,6.10
2022-10-26T00:01:09.150Z,5.22
2022-10-26T00:02:05.975Z,6.10
2022-10-26T00:03:02.627Z,5.53
2022-10-26T00:03:59.207Z,5.50
2022-10-26T00:04:55.748Z,5.35
2022-10-26T00:05:52.345Z,6.40
2022-10-26T00:06:49.002Z,6.00
2022-10-26T00:07:45.585Z,5.03
2022-10-26T00:08:42.792Z,5.10
2022-10-26T00:09:39.339Z,5.82
2022-10-26T00:10:40.251Z,6.20
2022-10-26T00:11:36.885Z,5.68
2022-10-26T00:12:33.435Z,5.60
2022-10-26T00:13:30.238Z,4.80
2022-10-26T00:14:27.203Z,5.22
2022-10-26T00:15:23.774Z,5.55
2022-10-26T00:16:24.478Z,5.50
2022-10-26T00:17:21.133Z,5.78
2022-10-26T00:18:17.679Z,4.70
2022-10-26T00:19:14.356Z,5.75
2022-10-26T00:20:11.382Z,6.70
2022-10-26T00:21:09.788Z,6.55
2022-10-26T00:22:06.391Z,6.28
2022-10-26T00:23:02.976Z,6.63
2022-10-26T00:24:00.204Z,7.25
2022-10-26T00:24:56.772Z,6.53
2022-10-26T00:25:57.068Z,5.93
2022-10-26T00:26:53.638Z,4.97
2022-10-26T00:27:50.372Z,5.30
2022-10-26T00:28:47.340Z,4.90
2022-10-26T00:29:44.068Z,5.47
2022-10-26T00:30:40.742Z,6.47
2022-10-26T00:31:37.346Z,6.15
2022-10-26T00:32:34.331Z,5.30
2022-10-26T00:33:32.462Z,5.50
2022-10-26T00:34:29.031Z,6.60
2022-10-26T00:35:44.505Z,6.22
2022-10-26T00:36:42.009Z,4.93
2022-10-26T00:37:38.590Z,6.25
2022-10-26T00:38:35.143Z,6.57
2022-10-26T00:39:31.864Z,6.47
2022-10-26T00:40:29.387Z,6.10
2022-10-26T00:41:29.380Z,5.13
2022-10-26T00:42:26.142Z,4.85
2022-10-26T00:43:22.753Z,5.82
2022-10-26T00:44:47.471Z,5.38
2022-10-26T00:45:45.403Z,4.85
2022-10-26T00:46:41.956Z,6.88
2022-10-26T00:47:45.220Z,5.70
2022-10-26T00:48:45.956Z,6.60
2022-10-26T00:49:46.676Z,6.22
2022-10-26T00:50:46.692Z,6.60
2022-10-26T00:51:48.732Z,7.18
2022-10-26T00:52:45.415Z,5.70
2022-10-26T00:53:42.668Z,5.35
2022-10-26T00:54:39.633Z,5.47
2022-10-26T00:55:40.425Z,5.47
2022-10-26T00:56:37.342Z,7.28
2022-10-26T00:58:32.670Z,6.85
2022-10-26T00:59:29.382Z,7.30
2022-10-26T01:00:26.025Z,5.85
2022-10-26T01:01:22.695Z,6.30
2022-10-26T01:02:19.423Z,5.13
2022-10-26T01:03:17.106Z,6.30
2022-10-26T01:04:14.781Z,6.28
2022-10-26T01:05:12.460Z,6.20
2022-10-26T01:06:13.603Z,6.20
2022-10-26T01:07:10.704Z,5.72
2022-10-26T01:08:09.358Z,6.70
2022-10-26T01:09:06.270Z,6.15
2022-10-26T01:10:03.014Z,5.30
2022-10-26T01:11:00.437Z,5.45
2022-10-26T01:11:56.996Z,5.57
2022-10-26T01:12:56.768Z,5.38
2022-10-26T01:13:54.191Z,7.22
2022-10-26T01:14:50.880Z,6.50
2022-10-26T01:16:10.658Z,5.88
2022-10-26T01:17:10.339Z,7.03
2022-10-26T01:18:17.602Z,7.40
2022-10-26T01:19:35.611Z,6.55
2022-10-26T01:21:09.562Z,7.63
2022-10-26T01:22:19.691Z,5.95
2022-10-26T01:23:48.763Z,5.72
2022-10-26T01:24:51.113Z,5.32
2022-10-26T01:26:17.493Z,6.40
2022-10-26T01:27:48.795Z,6.88
2022-10-26T01:29:13.296Z,6.63
2022-10-26T01:30:31.172Z,7.40
2022-10-26T01:31:34.343Z,7.82
2022-10-26T01:32:42.975Z,7.57
2022-10-26T01:33:52.061Z,6.55
2022-10-26T01:35:14.839Z,7.18
2022-10-26T01:36:26.266Z,7.53
2022-10-26T01:37:29.415Z,7.35
2022-10-26T01:38:35.740Z,6.68
2022-10-26T01:39:46.092Z,6.18
2022-10-26T01:40:54.694Z,6.40
2022-10-26T01:41:53.211Z,6.80
2022-10-26T01:42:53.802Z,7.22
2022-10-26T01:43:56.701Z,6.28
2022-10-26T01:44:59.022Z,6.18
2022-10-26T01:45:57.274Z,8.13
2022-10-26T01:46:56.854Z,8.07
2022-10-26T01:47:56.503Z,8.30
2022-10-26T01:48:59.069Z,7.28
2022-10-26T01:49:58.531Z,6.43
2022-10-26T01:50:57.764Z,7.18
2022-10-26T01:51:54.757Z,7.97
2022-10-26T01:52:51.462Z,7.05
2022-10-26T01:53:48.073Z,6.32
2022-10-26T01:54:44.746Z,6.13
2022-10-26T01:55:51.556Z,7.00
2022-10-26T01:56:53.785Z,6.97
2022-10-26T01:57:51.964Z,7.35
2022-10-26T01:59:07.272Z,9.70
2022-10-26T02:00:12.002Z,6.78
2022-10-26T02:01:29.539Z,6.53
2022-10-26T02:02:34.561Z,5.57
2022-10-26T02:03:54.367Z,7.05
2022-10-26T02:05:00.329Z,6.82
2022-10-26T02:06:35.937Z,7.28
2022-10-26T02:07:41.750Z,5.60
2022-10-26T02:08:54.248Z,6.30
2022-10-26T02:10:13.808Z,8.13
2022-10-26T02:11:34.911Z,7.53
2022-10-26T02:12:50.042Z,7.85
2022-10-26T02:13:56.417Z,7.45
2022-10-26T02:15:32.203Z,6.65
2022-10-26T02:16:48.664Z,7.45
2022-10-26T02:17:50.961Z,6.45
2022-10-26T02:19:58.557Z,7.75
2022-10-26T02:21:17.855Z,6.35
2022-10-26T02:22:32.181Z,7.22
2022-10-26T02:23:32.763Z,7.80
2022-10-26T02:24:31.876Z,6.78
2022-10-26T02:25:32.514Z,7.20
2022-10-26T02:26:32.844Z,6.60
2022-10-26T02:27:35.116Z,6.03
2022-10-26T02:28:37.728Z,8.35
2022-10-26T02:29:35.546Z,8.40
2022-10-26T02:30:35.178Z,6.72
2022-10-26T02:31:33.938Z,7.60
2022-10-26T02:32:35.215Z,7.13
2022-10-26T02:33:36.885Z,7.38
2022-10-26T02:34:37.595Z,6.80
2022-10-26T02:35:36.850Z,6.05
2022-10-26T02:36:36.604Z,6.65
2022-10-26T02:37:35.746Z,7.25
2022-10-26T02:38:34.514Z,6.55
2022-10-26T02:39:34.686Z,7.70
2022-10-26T02:40:33.598Z,8.80
2022-10-26T02:41:31.050Z,6.97
2022-10-26T02:42:28.337Z,6.15
2022-10-26T02:43:26.720Z,6.93
2022-10-26T02:44:30.171Z,6.47
2022-10-26T02:45:33.434Z,7.40
2022-10-26T02:46:30.196Z,7.10
2022-10-26T02:47:27.629Z,6.32
2022-10-26T02:48:24.542Z,6.25
2022-10-26T02:49:21.762Z,7.80
2022-10-26T02:50:22.527Z,8.85
2022-10-26T02:51:40.117Z,8.38
2022-10-26T02:52:51.585Z,6.40
2022-10-26T02:53:54.891Z,6.25
2022-10-26T02:54:57.761Z,6.35
2022-10-26T02:55:54.489Z,8.25
2022-10-26T02:56:59.924Z,8.93
2022-10-26T02:58:02.829Z,8.43
2022-10-26T02:59:04.561Z,8.13
2022-10-26T03:00:03.644Z,8.52
2022-10-26T03:01:00.575Z,7.50
2022-10-26T03:01:58.287Z,6.97
2022-10-26T03:02:58.086Z,7.05
2022-10-26T03:03:58.235Z,8.52
2022-10-26T03:04:56.349Z,8.88
2022-10-26T03:05:52.921Z,8.45
2022-10-26T03:06:54.408Z,5.78
2022-10-26T03:07:51.048Z,9.13
2022-10-26T03:08:47.653Z,8.52
2022-10-26T03:09:44.263Z,8.65
2022-10-26T03:10:43.215Z,9.52
2022-10-26T03:11:39.770Z,9.43
2022-10-26T03:12:36.351Z,9.23
2022-10-26T03:13:32.933Z,7.80
2022-10-26T03:14:29.464Z,8.93
2022-10-26T03:15:26.120Z,9.40
2022-10-26T03:16:22.712Z,7.30
2022-10-26T03:17:19.274Z,6.68
2022-10-26T03:18:15.879Z,5.90
2022-10-26T03:19:12.524Z,6.07
2022-10-26T03:20:09.804Z,6.10
2022-10-26T03:21:06.451Z,5.95
2022-10-26T03:22:03.026Z,6.50
2022-10-26T03:22:59.710Z,7.88
2022-10-26T03:23:56.355Z,8.60
2022-10-26T03:24:52.911Z,8.30
2022-10-26T03:25:49.460Z,8.30
2022-10-26T03:26:46.058Z,8.98
2022-10-26T03:27:43.237Z,8.82
2022-10-26T03:28:39.788Z,8.05
2022-10-26T03:29:36.355Z,7.60
2022-10-26T03:30:33.387Z,8.75
2022-10-26T03:31:29.952Z,8.07
2022-10-26T03:32:26.612Z,7.97
2022-10-26T03:33:25.680Z,6.47
2022-10-26T03:34:24.477Z,8.10
2022-10-26T03:35:21.673Z,8.02
2022-10-26T03:36:18.369Z,8.20
2022-10-26T03:37:14.960Z,6.05
2022-10-26T03:38:15.264Z,7.60
2022-10-26T03:39:12.784Z,7.72
2022-10-26T03:40:10.146Z,7.57
2022-10-26T03:41:06.839Z,7.25
2022-10-26T03:42:03.481Z,7.40
2022-10-26T03:43:00.114Z,6.93
2022-10-26T03:43:56.766Z,7.50
2022-10-26T03:44:53.359Z,7.20
2022-10-26T03:45:49.941Z,6.03
2022-10-26T03:46:46.527Z,7.35
2022-10-26T03:47:45.195Z,7.10
2022-10-26T03:48:41.847Z,6.13
2022-10-26T03:49:38.426Z,6.65
2022-10-26T03:50:35.003Z,5.88
2022-10-26T03:51:32.091Z,7.40
2022-10-26T03:52:28.678Z,7.43
2022-10-26T03:53:26.363Z,6.70
2022-10-26T03:54:26.177Z,6.10
2022-10-26T03:55:22.743Z,6.53
2022-10-26T03:56:19.293Z,7.65
2022-10-26T03:57:15.866Z,6.93
2022-10-26T03:58:12.527Z,6.05
2022-10-26T03:59:09.205Z,7.18
2022-10-26T04:00:06.387Z,7.60
2022-10-26T04:01:03.035Z,8.77
2022-10-26T04:01:59.752Z,7.57
2022-10-26T04:02:58.427Z,6.82
2022-10-26T04:03:54.988Z,7.13
2022-10-26T04:04:51.609Z,8.05
2022-10-26T04:05:48.166Z,8.18
2022-10-26T04:06:47.703Z,6.05
2022-10-26T04:07:44.284Z,5.57
2022-10-26T04:08:40.843Z,6.28
2022-10-26T04:09:37.383Z,6.53
2022-10-26T04:10:34.154Z,6.45
2022-10-26T04:11:30.799Z,5.68
2022-10-26T04:12:27.531Z,5.50
2022-10-26T04:13:24.384Z,8.23
2022-10-26T04:14:20.974Z,6.82
2022-10-26T04:15:20.093Z,7.75
2022-10-26T04:16:16.638Z,8.82
2022-10-26T04:17:13.243Z,8.00
2022-10-26T04:18:13.025Z,7.80
2022-10-26T04:19:09.646Z,8.10
2022-10-26T04:20:06.880Z,7.82
2022-10-26T04:21:03.639Z,8.88
2022-10-26T04:22:00.172Z,6.78
2022-10-26T04:23:00.977Z,6.35
2022-10-26T04:23:57.511Z,7.20
2022-10-26T04:24:54.067Z,6.50
2022-10-26T04:25:50.758Z,6.40
2022-10-26T04:26:47.311Z,5.93
2022-10-26T04:27:43.879Z,5.90
2022-10-26T04:28:40.442Z,6.18
2022-10-26T04:29:36.981Z,6.13
2022-10-26T04:30:34.855Z,7.18
2022-10-26T04:31:31.570Z,6.05
2022-10-26T04:32:28.211Z,5.90
2022-10-26T04:33:24.854Z,6.18
2022-10-26T04:34:21.376Z,6.78
2022-10-26T04:35:18.011Z,5.70
2022-10-26T04:36:14.643Z,7.22
2022-10-26T04:37:11.297Z,6.95
2022-10-26T04:38:07.997Z,7.03
2022-10-26T04:39:04.554Z,6.18
2022-10-26T04:40:01.166Z,6.63
2022-10-26T04:40:57.735Z,7.20
2022-10-26T04:41:54.875Z,6.75
2022-10-26T04:42:51.853Z,6.10
2022-10-26T04:43:48.791Z,7.10
2022-10-26T04:44:45.323Z,6.90
2022-10-26T04:45:41.876Z,5.68
2022-10-26T04:46:38.498Z,6.47
2022-10-26T04:47:35.099Z,6.88
2022-10-26T04:48:31.761Z,6.78
2022-10-26T04:49:28.399Z,4.97
2022-10-26T04:50:27.581Z,5.80
2022-10-26T04:51:25.035Z,6.75
2022-10-26T04:52:21.570Z,7.30
2022-10-26T04:53:18.120Z,6.93
2022-10-26T04:54:15.085Z,6.03
2022-10-26T04:55:11.636Z,6.55
2022-10-26T04:56:08.922Z,5.68
2022-10-26T04:57:05.531Z,5.68
2022-10-26T04:58:02.588Z,6.68
2022-10-26T04:58:59.251Z,6.32
2022-10-26T04:59:55.803Z,5.80
2022-10-26T05:00:52.363Z,7.35
2022-10-26T05:01:49.085Z,7.93
2022-10-26T05:02:45.772Z,7.00
2022-10-26T05:03:42.333Z,7.90
2022-10-26T05:04:38.904Z,7.68
2022-10-26T05:05:36.725Z,8.82
2022-10-26T05:06:33.279Z,8.20
2022-10-26T05:07:29.827Z,7.50
2022-10-26T05:08:29.219Z,7.80
2022-10-26T05:09:25.817Z,7.47
2022-10-26T05:10:22.827Z,6.85
2022-10-26T05:11:19.559Z,7.13
2022-10-26T05:12:16.158Z,7.43
2022-10-26T05:13:12.708Z,9.25
2022-10-26T05:14:09.851Z,8.02
2022-10-26T05:15:08.579Z,8.23
2022-10-26T05:16:05.780Z,8.23
2022-10-26T05:17:02.396Z,8.52
2022-10-26T05:18:02.982Z,7.65
2022-10-26T05:18:59.618Z,7.47
2022-10-26T05:19:58.129Z,9.30
2022-10-26T05:20:55.592Z,7.80
2022-10-26T05:21:53.479Z,7.38
2022-10-26T05:22:53.374Z,7.13
2022-10-26T05:23:55.370Z,7.10
2022-10-26T05:24:52.149Z,8.13
2022-10-26T05:25:49.359Z,6.68
2022-10-26T05:26:46.291Z,7.07
2022-10-26T05:27:42.831Z,7.00
2022-10-26T05:28:39.376Z,6.50
2022-10-26T05:29:35.906Z,6.15
2022-10-26T05:30:32.792Z,8.05
2022-10-26T05:31:29.441Z,8.15
2022-10-26T05:32:26.034Z,8.07
2022-10-26T05:33:23.807Z,7.28
2022-10-26T05:34:20.392Z,6.72
2022-10-26T05:35:16.937Z,6.65
2022-10-26T05:36:13.529Z,6.53
2022-10-26T05:37:10.092Z,6.65
2022-10-26T05:38:08.655Z,7.82
2022-10-26T05:39:05.346Z,7.32
2022-10-26T05:40:01.946Z,6.38
2022-10-26T05:40:59.354Z,5.78
2022-10-26T05:41:55.932Z,6.38
2022-10-26T05:42:53.060Z,6.18
2022-10-26T05:43:49.899Z,6.30
2022-10-26T05:44:46.889Z,5.80
2022-10-26T05:45:43.644Z,5.75
2022-10-26T05:46:40.368Z,5.88
2022-10-26T05:47:45.619Z,6.18
2022-10-26T05:48:42.290Z,6.05
2022-10-26T05:49:38.825Z,5.40
2022-10-26T05:50:35.577Z,5.55
2022-10-26T05:51:37.225Z,5.95
2022-10-26T05:52:47.199Z,5.97
2022-10-26T05:53:43.745Z,5.47
2022-10-26T05:54:40.414Z,6.18
2022-10-26T05:55:37.740Z,6.30
2022-10-26T05:56:43.907Z,5.43
2022-10-26T05:57:41.374Z,5.25
2022-10-26T05:58:39.280Z,5.40
2022-10-26T05:59:36.086Z,6.80
2022-10-26T06:00:33.069Z,6.57
2022-10-26T06:02:00.616Z,6.10
2022-10-26T06:03:16.364Z,5.85
2022-10-26T06:04:27.967Z,4.78
2022-10-26T06:05:27.796Z,5.82
2022-10-26T06:06:24.739Z,5.85
2022-10-26T06:07:21.562Z,5.72
2022-10-26T06:08:18.716Z,5.47
2022-10-26T06:09:15.995Z,4.95
2022-10-26T06:10:13.200Z,5.32
2022-10-26T06:11:10.528Z,5.80
2022-10-26T06:12:07.898Z,4.55
2022-10-26T06:13:04.758Z,5.55
2022-10-26T06:14:01.637Z,5.43
2022-10-26T06:14:58.782Z,5.22
2022-10-26T06:16:23.096Z,4.75
2022-10-26T06:17:42.008Z,5.78
2022-10-26T06:19:03.307Z,4.53
2022-10-26T06:20:03.267Z,4.65
2022-10-26T06:21:23.588Z,4.82
2022-10-26T06:22:39.468Z,4.82
2022-10-26T06:23:53.554Z,4.65
2022-10-26T06:24:53.238Z,4.63
2022-10-26T06:25:58.936Z,5.55
2022-10-26T06:26:55.484Z,5.05
2022-10-26T06:28:14.468Z,4.95
2022-10-26T06:29:32.339Z,5.47
2022-10-26T06:30:29.023Z,5.00
2022-10-26T06:31:25.623Z,5.13
2022-10-26T06:32:25.029Z,5.18
2022-10-26T06:33:29.545Z,4.50
2022-10-26T06:34:33.350Z,4.65
2022-10-26T06:35:43.458Z,4.38
2022-10-26T06:36:41.647Z,4.85
2022-10-26T06:37:39.750Z,5.38
2022-10-26T06:38:38.248Z,5.03
2022-10-26T06:39:39.416Z,5.35
2022-10-26T06:40:39.811Z,4.88
2022-10-26T06:41:37.166Z,5.15
2022-10-26T06:42:33.998Z,5.35
2022-10-26T06:43:34.699Z,5.68
2022-10-26T06:44:31.562Z,5.68
2022-10-26T06:45:28.380Z,5.28
2022-10-26T06:46:31.832Z,5.95
2022-10-26T06:47:42.440Z,5.57
2022-10-26T06:48:56.380Z,5.82
2022-10-26T06:50:07.244Z,5.38
2022-10-26T06:51:04.076Z,5.43
2022-10-26T06:52:16.975Z,4.63
2022-10-26T06:53:22.739Z,5.45
2022-10-26T06:54:23.765Z,6.00
2022-10-26T06:55:21.973Z,6.10
2022-10-26T06:56:19.277Z,5.78
2022-10-26T06:57:17.800Z,5.93
2022-10-26T06:58:18.271Z,5.53
2022-10-26T06:59:29.914Z,5.28
2022-10-26T07:00:27.063Z,5.43
2022-10-26T07:01:23.862Z,5.78
2022-10-26T07:02:20.996Z,5.22
2022-10-26T07:03:17.667Z,5.28
2022-10-26T07:04:14.271Z,5.50
2022-10-26T07:05:12.988Z,5.82
2022-10-26T07:06:10.037Z,5.07
2022-10-26T07:07:07.202Z,5.40
2022-10-26T07:08:04.991Z,5.63
2022-10-26T07:09:01.567Z,5.78
2022-10-26T07:09:58.163Z,5.30
2022-10-26T07:10:54.742Z,4.95
2022-10-26T07:11:51.311Z,4.53
2022-10-26T07:12:47.949Z,5.50
2022-10-26T07:13:44.495Z,5.65
2022-10-26T07:14:41.314Z,4.80
2022-10-26T07:15:39.135Z,6.40
2022-10-26T07:16:35.733Z,6.20
2022-10-26T07:17:32.326Z,6.00
2022-10-26T07:18:28.950Z,5.35
2022-10-26T07:19:25.645Z,5.70
2022-10-26T07:20:22.368Z,4.80
2022-10-26T07:21:18.975Z,6.13
2022-10-26T07:22:15.579Z,5.50
2022-10-26T07:23:12.270Z,5.70
2022-10-26T07:24:09.184Z,5.13
2022-10-26T07:25:08.056Z,4.95
2022-10-26T07:26:04.801Z,5.53
2022-10-26T07:27:01.523Z,4.75
2022-10-26T07:27:59.359Z,5.40
2022-10-26T07:28:56.005Z,5.22
2022-10-26T07:29:52.573Z,6.75
2022-10-26T07:30:53.932Z,5.90
2022-10-26T07:32:51.261Z,5.50
2022-10-26T07:33:48.139Z,5.60
2022-10-26T07:34:44.711Z,5.03
2022-10-26T07:35:41.390Z,5.10
2022-10-26T07:36:37.961Z,5.35
2022-10-26T07:37:34.525Z,5.28
2022-10-26T07:38:31.114Z,5.47
2022-10-26T07:39:27.831Z,4.75
2022-10-26T07:40:24.686Z,4.70
2022-10-26T07:41:21.280Z,5.18
2022-10-26T07:42:17.904Z,5.20
2022-10-26T07:43:14.484Z,5.40
2022-10-26T07:44:11.039Z,5.32
2022-10-26T07:45:08.059Z,5.13
2022-10-26T07:46:04.772Z,4.50
2022-10-26T07:47:01.548Z,4.72
2022-10-26T07:47:58.273Z,4.45
2022-10-26T07:48:55.042Z,5.47
2022-10-26T07:49:51.599Z,4.25
2022-10-26T07:50:48.295Z,4.72
2022-10-26T07:51:45.060Z,4.38
2022-10-26T07:52:41.956Z,4.35
2022-10-26T07:53:38.671Z,5.40
2022-10-26T07:54:35.267Z,4.80
2022-10-26T07:55:31.862Z,5.13
2022-10-26T07:56:28.940Z,4.65
2022-10-26T07:57:25.477Z,4.75
2022-10-26T07:58:25.792Z,4.32
2022-10-26T07:59:22.339Z,4.47
2022-10-26T08:00:19.000Z,6.03
2022-10-26T08:01:16.354Z,5.03
2022-10-26T08:02:13.099Z,5.68
2022-10-26T08:03:09.665Z,4.65
2022-10-26T08:04:06.235Z,4.57
2022-10-26T08:05:03.620Z,5.03
2022-10-26T08:06:00.767Z,4.53
2022-10-26T08:06:57.782Z,4.90
2022-10-26T08:07:54.331Z,4.65
2022-10-26T08:08:51.853Z,4.22
2022-10-26T08:09:48.405Z,5.05
2022-10-26T08:10:46.124Z,5.25
2022-10-26T08:11:42.672Z,5.03
2022-10-26T08:12:39.688Z,6.13
2022-10-26T08:13:36.255Z,5.05
2022-10-26T08:14:32.879Z,4.55
2022-10-26T08:15:29.438Z,4.95
2022-10-26T08:16:26.113Z,5.10
2022-10-26T08:17:23.072Z,4.63
2022-10-26T08:18:19.620Z,5.20
2022-10-26T08:19:16.259Z,5.25
2022-10-26T08:20:13.195Z,4.57
2022-10-26T08:21:21.666Z,4.57
2022-10-26T08:22:23.001Z,4.20
2022-10-26T08:23:19.883Z,5.25
2022-10-26T08:24:16.464Z,4.78
2022-10-26T08:25:16.278Z,5.63
2022-10-26T08:27:12.568Z,4.55
2022-10-26T08:28:09.167Z,5.57
2022-10-26T08:29:05.852Z,6.40
2022-10-26T08:30:02.388Z,5.50
2022-10-26T08:30:58.971Z,5.95
2022-10-26T08:31:57.021Z,5.22
2022-10-26T08:33:04.767Z,5.57
2022-10-26T08:34:01.917Z,5.07
2022-10-26T08:34:58.505Z,5.15
2022-10-26T08:35:57.825Z,5.95
2022-10-26T08:36:54.368Z,5.07
2022-10-26T08:37:52.566Z,6.03
2022-10-26T08:38:49.252Z,4.75
2022-10-26T08:39:49.097Z,5.32
2022-10-26T08:40:48.664Z,4.32
2022-10-26T08:41:47.975Z,4.28
2022-10-26T08:42:48.953Z,4.43
2022-10-26T08:43:52.322Z,4.82
2022-10-26T08:44:58.496Z,4.60
2022-10-26T08:46:04.552Z,4.80
2022-10-26T08:47:21.382Z,4.78
2022-10-26T08:48:24.358Z,4.57
2022-10-26T08:49:31.064Z,4.75
2022-10-26T08:50:52.047Z,5.05
2022-10-26T08:51:52.124Z,4.60
2022-10-26T08:53:17.294Z,5.43
2022-10-26T08:54:26.651Z,4.85
2022-10-26T08:55:29.049Z,5.28
2022-10-26T08:56:29.119Z,5.28
2022-10-26T08:57:37.142Z,4.78
2022-10-26T08:58:43.949Z,5.25
2022-10-26T08:59:56.567Z,5.22
2022-10-26T09:00:53.604Z,5.95
2022-10-26T09:01:50.270Z,5.60
2022-10-26T09:02:51.564Z,6.32
2022-10-26T09:03:48.205Z,5.80
2022-10-26T09:04:45.348Z,5.93
2022-10-26T09:05:55.835Z,5.43
2022-10-26T09:07:13.699Z,4.70
2022-10-26T09:08:35.530Z,4.78
2022-10-26T09:09:50.639Z,6.65
2022-10-26T09:10:59.669Z,5.65
2022-10-26T09:12:10.371Z,5.43
2022-10-26T09:13:24.707Z,4.00
2022-10-26T09:14:43.582Z,4.53
2022-10-26T09:15:57.144Z,5.07
2022-10-26T09:16:56.431Z,5.10
2022-10-26T09:18:03.956Z,3.70
2022-10-26T09:19:32.554Z,4.03
2022-10-26T09:20:47.768Z,4.47
2022-10-26T09:22:19.631Z,4.20
2022-10-26T09:23:24.665Z,3.53
2022-10-26T09:24:34.197Z,3.67
2022-10-26T09:25:38.720Z,2.97
2022-10-26T09:27:00.123Z,2.70
2022-10-26T09:28:02.158Z,2.53
2022-10-26T09:29:04.680Z,2.40
2022-10-26T09:31:05.025Z,3.15
2022-10-26T09:32:03.918Z,3.22
2022-10-26T09:33:05.824Z,2.38
2022-10-26T09:34:07.000Z,2.38
2022-10-26T09:35:10.672Z,2.60
2022-10-26T09:36:15.975Z,2.53
2022-10-26T09:37:32.197Z,2.90
2022-10-26T09:38:31.541Z,2.40
2022-10-26T09:39:39.599Z,2.47
2022-10-26T09:40:57.079Z,2.65
2022-10-26T09:41:58.917Z,2.45
2022-10-26T09:43:05.744Z,2.97
2022-10-26T09:44:11.783Z,3.00
2022-10-26T09:45:32.771Z,2.08
2022-10-26T09:46:33.781Z,2.33
2022-10-26T09:47:39.349Z,2.47
2022-10-26T09:48:43.008Z,2.83
2022-10-26T09:49:51.897Z,2.60
2022-10-26T09:50:51.392Z,2.03
2022-10-26T09:51:48.684Z,2.63
2022-10-26T09:52:45.346Z,2.38
2022-10-26T09:53:41.936Z,2.47
2022-10-26T09:54:38.566Z,2.90
2022-10-26T09:55:44.254Z,3.15
2022-10-26T09:56:43.771Z,2.35
2022-10-26T09:57:45.020Z,2.22
2022-10-26T09:58:59.549Z,1.95
2022-10-26T09:59:56.468Z,3.00
2022-10-26T10:00:54.121Z,3.10
2022-10-26T10:01:50.795Z,2.72
2022-10-26T10:02:53.618Z,2.58
2022-10-26T10:04:11.394Z,2.20
2022-10-26T10:05:49.918Z,2.88
2022-10-26T10:06:45.659Z,4.05
2022-10-26T10:07:42.246Z,4.38
2022-10-26T10:08:38.789Z,2.97
2022-10-26T10:09:35.403Z,3.28
2022-10-26T10:10:32.917Z,3.00
2022-10-26T10:11:39.279Z,2.80
2022-10-26T10:12:35.910Z,2.85
2022-10-26T10:13:35.780Z,2.40
2022-10-26T10:14:40.621Z,3.10
2022-10-26T10:15:37.304Z,3.03
2022-10-26T10:16:34.012Z,3.60
2022-10-26T10:17:30.808Z,4.13
2022-10-26T10:18:27.463Z,3.63
2022-10-26T10:19:38.301Z,3.47
2022-10-26T10:20:34.879Z,4.55
2022-10-26T10:21:50.127Z,3.60
2022-10-26T10:22:54.806Z,3.20
2022-10-26T10:23:53.291Z,2.97
2022-10-26T10:24:56.634Z,2.83
2022-10-26T10:26:01.840Z,3.42
2022-10-26T10:27:15.163Z,3.15
2022-10-26T10:28:22.477Z,2.85
2022-10-26T10:29:19.095Z,2.40
2022-10-26T10:30:31.422Z,2.70
2022-10-26T10:31:33.022Z,2.72
2022-10-26T10:32:35.475Z,2.67
2022-10-26T10:33:42.712Z,3.03
2022-10-26T10:34:39.268Z,3.10
2022-10-26T10:35:36.111Z,2.47
2022-10-26T10:36:34.059Z,2.20
2022-10-26T10:37:34.988Z,2.33
2022-10-26T10:38:37.928Z,2.35
2022-10-26T10:39:42.662Z,2.38
2022-10-26T10:40:39.269Z,2.53
2022-10-26T10:41:36.787Z,2.67
2022-10-26T10:42:38.641Z,2.50
2022-10-26T10:43:35.349Z,2.10
2022-10-26T10:44:33.986Z,2.40
2022-10-26T10:45:31.307Z,2.47
2022-10-26T10:46:28.598Z,1.75
2022-10-26T10:47:33.619Z,1.92
2022-10-26T10:48:31.726Z,1.92
2022-10-26T10:49:31.064Z,2.00
2022-10-26T10:50:29.257Z,2.15
2022-10-26T10:51:25.949Z,1.80
2022-10-26T10:52:29.076Z,1.90
2022-10-26T10:53:44.327Z,2.08
2022-10-26T10:54:40.982Z,2.10
2022-10-26T10:55:39.457Z,2.03
2022-10-26T10:56:46.839Z,2.15
2022-10-26T10:58:00.768Z,1.95
2022-10-26T10:59:12.394Z,2.00
2022-10-26T11:00:11.954Z,2.20
2022-10-26T11:01:15.705Z,2.30
2022-10-26T11:02:44.753Z,2.10
2022-10-26T11:03:41.287Z,2.33
2022-10-26T11:04:56.248Z,2.58
2022-10-26T11:06:05.787Z,2.25
2022-10-26T11:07:05.378Z,2.00
2022-10-26T11:08:28.424Z,1.80
2022-10-26T11:09:28.832Z,2.20
2022-10-26T11:10:30.635Z,2.47
2022-10-26T11:11:50.864Z,2.08
2022-10-26T11:13:15.079Z,2.00
2022-10-26T11:14:25.195Z,1.92
2022-10-26T11:15:26.268Z,2.35
2022-10-26T11:16:37.570Z,2.28
2022-10-26T11:18:00.328Z,2.20
2022-10-26T11:19:03.363Z,1.60
2022-10-26T11:20:04.139Z,2.08
2022-10-26T11:21:12.750Z,2.03
2022-10-26T11:22:16.940Z,1.75
2022-10-26T11:23:20.994Z,1.75
2022-10-26T11:24:42.110Z,1.90
2022-10-26T11:25:49.990Z,1.70
2022-10-26T11:26:59.168Z,1.77
2022-10-26T11:28:11.923Z,1.80
2022-10-26T11:29:14.687Z,1.55
2022-10-26T11:30:16.407Z,1.92
2022-10-26T11:31:36.084Z,2.40
2022-10-26T11:32:55.841Z,2.30
2022-10-26T11:34:20.082Z,2.35
2022-10-26T11:35:24.720Z,1.80
2022-10-26T11:36:25.278Z,1.58
2022-10-26T11:38:59.938Z,1.80
2022-10-26T11:40:22.566Z,2.10
2022-10-26T11:41:19.123Z,2.30
2022-10-26T11:42:26.040Z,1.75
2022-10-26T11:43:40.137Z,2.20
2022-10-26T11:44:40.241Z,1.80
2022-10-26T11:45:44.228Z,2.28
2022-10-26T11:46:43.276Z,1.90
2022-10-26T11:47:54.967Z,1.70
2022-10-26T11:48:58.954Z,1.73
2022-10-26T11:50:30.813Z,1.52
2022-10-26T11:51:33.102Z,1.70
2022-10-26T11:52:38.277Z,1.80
2022-10-26T11:53:41.068Z,1.90
2022-10-26T11:54:45.742Z,1.60
2022-10-26T11:55:43.475Z,2.03
2022-10-26T11:56:49.581Z,1.92
2022-10-26T11:57:47.165Z,2.20
2022-10-26T11:58:45.965Z,1.67
2022-10-26T11:59:50.516Z,1.70
2022-10-26T12:01:01.736Z,1.73
2022-10-26T12:02:21.363Z,2.10
2022-10-26T12:03:25.116Z,1.60
2022-10-26T12:04:25.571Z,1.65
2022-10-26T12:05:24.500Z,1.65
2022-10-26T12:06:27.528Z,1.80
2022-10-26T12:07:30.055Z,1.52
2022-10-26T12:09:42.203Z,1.77
2022-10-26T12:10:42.696Z,2.00
2022-10-26T12:11:48.583Z,1.83
2022-10-26T12:13:08.203Z,1.50
2022-10-26T12:14:07.779Z,1.33
2022-10-26T12:15:30.842Z,1.63
2022-10-26T12:17:09.044Z,1.95
2022-10-26T12:18:53.841Z,1.40
2022-10-26T12:19:51.573Z,1.85
2022-10-26T12:20:56.308Z,1.30
2022-10-26T12:21:54.215Z,1.30
2022-10-26T12:22:51.241Z,1.30
2022-10-26T12:24:01.456Z,1.38
2022-10-26T12:25:05.870Z,1.30
2022-10-26T12:26:24.009Z,1.15
2022-10-26T12:27:39.175Z,1.05
2022-10-26T12:28:35.743Z,1.30
2022-10-26T12:29:45.109Z,1.13
2022-10-26T12:30:41.664Z,1.10
2022-10-26T12:31:38.271Z,1.30
2022-10-26T12:32:36.490Z,1.40
2022-10-26T12:33:50.231Z,1.17
2022-10-26T12:34:47.161Z,1.23
2022-10-26T12:35:45.037Z,1.20
2022-10-26T12:36:56.461Z,1.13
2022-10-26T12:37:53.361Z,1.23
2022-10-26T12:38:57.833Z,1.40
2022-10-26T12:39:54.421Z,1.35
2022-10-26T12:41:10.707Z,1.45
2022-10-26T12:42:10.049Z,1.63
2022-10-26T12:43:15.475Z,1.50
2022-10-26T12:44:45.704Z,1.10
2022-10-26T12:45:44.000Z,0.98
2022-10-26T12:46:41.083Z,1.23
2022-10-26T12:47:37.588Z,1.13
2022-10-26T12:48:42.200Z,1.10
2022-10-26T12:50:06.851Z,1.02
2022-10-26T12:51:21.906Z,1.00
2022-10-26T12:52:27.675Z,1.60
2022-10-26T12:53:26.122Z,1.55
2022-10-26T12:54:45.442Z,1.50
2022-10-26T12:56:09.905Z,1.50
2022-10-26T12:57:06.423Z,1.70
2022-10-26T12:58:24.167Z,1.52
2022-10-26T12:59:30.037Z,1.13
2022-10-26T13:00:28.106Z,1.73
2022-10-26T13:01:47.919Z,1.25
2022-10-26T13:02:53.386Z,1.60
2022-10-26T13:03:57.758Z,1.40
2022-10-26T13:05:11.560Z,1.35
2022-10-26T13:06:20.810Z,1.38
2022-10-26T13:07:27.787Z,1.33
2022-10-26T13:08:25.086Z,1.20
2022-10-26T13:09:25.186Z,1.35
2022-10-26T13:10:24.610Z,1.40
2022-10-26T13:11:35.172Z,1.38
2022-10-26T13:12:46.337Z,1.23
2022-10-26T13:13:43.432Z,1.20
2022-10-26T13:14:51.734Z,1.30
2022-10-26T13:15:56.158Z,1.42
2022-10-26T13:16:53.346Z,1.65
2022-10-26T13:18:20.615Z,1.30
2022-10-26T13:19:25.708Z,1.65
2022-10-26T13:20:25.391Z,1.40
2022-10-26T13:21:24.831Z,1.30
2022-10-26T13:22:22.882Z,1.42
2022-10-26T13:23:26.636Z,1.42
2022-10-26T13:24:25.727Z,1.08
2022-10-26T13:25:32.057Z,1.30
2022-10-26T13:26:31.127Z,1.80
2022-10-26T13:27:33.915Z,1.30
2022-10-26T13:28:42.335Z,1.20
2022-10-26T13:30:05.061Z,1.42
2022-10-26T13:31:01.769Z,1.40
2022-10-26T13:31:59.978Z,1.67
2022-10-26T13:32:56.896Z,1.55
2022-10-26T13:33:57.959Z,1.10
2022-10-26T13:34:57.543Z,1.52
2022-10-26T13:35:58.276Z,1.30
2022-10-26T13:37:21.611Z,1.40
2022-10-26T13:38:22.340Z,1.77
2022-10-26T13:39:30.584Z,1.13
2022-10-26T13:40:29.712Z,1.30
2022-10-26T13:41:33.766Z,1.25
2022-10-26T13:42:38.867Z,1.52
2022-10-26T13:43:37.599Z,1.13
2022-10-26T13:45:06.753Z,1.00
2022-10-26T13:46:04.149Z,1.67
2022-10-26T13:47:09.973Z,1.02
2022-10-26T13:48:24.486Z,1.30
2022-10-26T13:49:41.553Z,1.00
2022-10-26T13:50:46.913Z,1.42
2022-10-26T13:51:47.012Z,0.90
2022-10-26T13:52:47.258Z,1.20